Time;durP1;ratioP1;P1;durP2;ratioP2;P2;SDS_P1;SDS_P2;PMS_P1;PMS_P2;Temp;Humidity;BMP_temperature;BMP_pressure;BME280_temperature;BME280_humidity;BME280_pressure;Samples;Min_cycle;Max_cycle;Signal;HPM_P1;HPM_P2
2024/01/27 00:01:21;;;;;;;5.85;1.90;;;;;;;3.72;50.08;95414.22;5049190;28;20055;-76
2024/01/27 00:03:46;;;;;;;4.15;1.90;;;;;;;3.67;50.34;95413.81;5047976;28;20432;-77
2024/01/27 00:06:12;;;;;;;4.90;2.35;;;;;;;3.66;50.22;95418.47;5049218;28;20104;-76
2024/01/27 00:08:37;;;;;;;5.53;2.25;;;;;;;3.73;50.27;95409.59;5064512;28;20508;-77
2024/01/27 00:11:02;;;;;;;6.28;2.08;;;;;;;3.72;50.40;95422.38;5065540;28;20024;-76
2024/01/27 00:13:28;;;;;;;4.32;2.00;;;;;;;3.64;50.39;95417.31;5065948;28;20469;-76
2024/01/27 00:15:54;;;;;;;6.22;2.22;;;;;;;3.63;50.56;95415.75;5065568;28;20092;-76
2024/01/27 00:18:20;;;;;;;6.45;2.42;;;;;;;3.60;50.57;95402.91;5067054;28;20024;-76
2024/01/27 00:20:45;;;;;;;4.18;2.22;;;;;;;3.64;50.57;95404.50;5047963;28;20021;-75
2024/01/27 00:23:11;;;;;;;5.95;2.30;;;;;;;3.61;50.59;95407.19;5065436;28;20089;-76
2024/01/27 00:25:36;;;;;;;7.25;2.08;;;;;;;3.59;50.77;95417.66;5064210;28;20024;-76
2024/01/27 00:28:02;;;;;;;3.83;2.10;;;;;;;3.63;50.88;95402.16;5049050;28;20020;-77
2024/01/27 00:30:28;;;;;;;6.45;2.47;;;;;;;3.58;50.86;95411.44;5064282;28;20448;-77
2024/01/27 00:32:53;;;;;;;6.93;2.30;;;;;;;3.66;50.80;95404.88;5048677;28;20041;-77
2024/01/27 00:35:18;;;;;;;10.70;2.40;;;;;;;3.66;50.89;95402.16;5066427;28;20059;-76
2024/01/27 00:37:44;;;;;;;7.10;2.50;;;;;;;3.62;50.72;95400.59;5066081;28;20063;-77
2024/01/27 00:40:10;;;;;;;7.25;2.88;;;;;;;3.66;50.86;95402.16;5065378;28;20048;-75
2024/01/27 00:42:36;;;;;;;4.72;2.30;;;;;;;3.76;50.67;95406.09;5064241;28;20506;-77
2024/01/27 00:45:01;;;;;;;6.75;2.22;;;;;;;3.75;50.68;95404.53;5048445;28;20089;-77
2024/01/27 00:47:27;;;;;;;4.43;2.20;;;;;;;3.76;51.00;95408.81;5065145;28;20045;-76
2024/01/27 00:49:54;;;;;;;4.40;1.75;;;;;;;3.72;50.93;95408.00;5065367;28;20109;-76
2024/01/27 00:52:20;;;;;;;5.40;2.03;;;;;;;3.86;50.68;95394.50;5065859;28;20048;-75
2024/01/27 00:54:45;;;;;;;6.10;2.40;;;;;;;3.79;50.79;95402.63;5065219;28;20036;-76
2024/01/27 00:57:10;;;;;;;6.45;2.13;;;;;;;3.92;50.70;95403.06;5064641;28;20499;-77
2024/01/27 00:59:36;;;;;;;4.93;2.25;;;;;;;3.87;51.00;95385.16;5064398;28;20036;-76
2024/01/27 01:02:02;;;;;;;8.55;2.50;;;;;;;3.86;51.20;95394.50;5065233;28;20067;-76
2024/01/27 01:04:27;;;;;;;9.77;2.67;;;;;;;3.82;51.48;95393.69;5065196;28;20103;-76
2024/01/27 01:06:52;;;;;;;6.32;2.67;;;;;;;3.83;51.54;95402.63;5065051;28;20025;-76
2024/01/27 01:09:18;;;;;;;6.25;2.50;;;;;;;3.84;51.29;95391.38;5047027;28;20114;-76
2024/01/27 01:11:43;;;;;;;6.43;2.40;;;;;;;3.86;51.69;95407.31;5066798;28;20196;-76
2024/01/27 01:14:09;;;;;;;5.18;2.80;;;;;;;3.84;51.57;95402.28;5047311;28;20040;-77
2024/01/27 01:16:34;;;;;;;6.22;2.45;;;;;;;3.85;51.80;95403.03;5064598;28;20029;-76
2024/01/27 01:19:00;;;;;;;4.35;2.22;;;;;;;3.95;51.67;95403.06;5066445;28;20041;-77
2024/01/27 01:21:26;;;;;;;5.88;2.85;;;;;;;3.99;51.60;95400.38;5063756;28;20036;-77
2024/01/27 01:23:52;;;;;;;7.45;2.60;;;;;;;4.01;51.43;95398.03;5067923;28;20028;-76
2024/01/27 01:26:17;;;;;;;5.80;2.90;;;;;;;4.04;51.25;95391.84;5068743;28;20033;-76
2024/01/27 01:28:43;;;;;;;6.20;2.15;;;;;;;4.08;51.01;95391.88;5068762;28;20025;-75
2024/01/27 01:31:08;;;;;;;7.30;2.50;;;;;;;4.03;51.15;95389.50;5050433;28;20110;-78
2024/01/27 01:33:33;;;;;;;5.95;2.70;;;;;;;4.09;50.88;95385.25;5070141;28;20107;-77
2024/01/27 01:35:59;;;;;;;7.43;2.40;;;;;;;4.08;50.73;95384.47;5067929;28;20449;-77
2024/01/27 01:38:24;;;;;;;5.90;2.38;;;;;;;4.07;50.91;95382.13;5067203;28;20024;-76
2024/01/27 01:40:50;;;;;;;8.68;2.63;;;;;;;4.13;50.61;95380.59;5070300;28;20051;-76
2024/01/27 01:43:15;;;;;;;7.65;2.65;;;;;;;4.14;50.38;95368.56;5066784;28;20041;-76
2024/01/27 01:45:40;;;;;;;6.18;2.30;;;;;;;4.12;50.16;95349.88;5051974;28;20033;-76
2024/01/27 01:48:07;;;;;;;5.90;2.38;;;;;;;4.02;50.60;95368.91;5066472;28;20036;-77
2024/01/27 01:50:32;;;;;;;7.15;2.90;;;;;;;4.09;50.28;95360.78;5068668;28;20025;-76
2024/01/27 01:52:58;;;;;;;8.80;3.05;;;;;;;4.15;50.10;95356.50;5067348;28;20058;-76
2024/01/27 01:55:23;;;;;;;6.32;2.58;;;;;;;4.12;50.09;95368.91;5051218;28;20055;-76
2024/01/27 01:57:49;;;;;;;7.15;2.53;;;;;;;4.13;49.98;95369.69;5051553;28;20137;-75
2024/01/27 02:00:15;;;;;;;5.50;2.42;;;;;;;4.20;49.85;95367.03;5067779;28;20032;-76
2024/01/27 02:02:44;;;;;;;7.78;2.75;;;;;;;4.17;49.80;95370.50;5068433;28;20127;-76
2024/01/27 02:05:09;;;;;;;5.55;2.45;;;;;;;4.20;49.88;95358.84;5066519;28;20036;-76
2024/01/27 02:07:35;;;;;;;4.82;2.55;;;;;;;4.28;49.83;95354.19;5068467;28;20415;-76
2024/01/27 02:10:02;;;;;;;7.65;2.88;;;;;;;4.31;49.56;95348.00;5067851;28;20388;-76
2024/01/27 02:12:27;;;;;;;8.07;3.22;;;;;;;4.24;49.62;95344.09;5068091;28;20521;-76
2024/01/27 02:14:52;;;;;;;8.40;3.33;;;;;;;4.24;49.75;95337.84;5067532;28;20024;-76
2024/01/27 02:17:18;;;;;;;7.47;3.45;;;;;;;4.35;49.55;95332.44;5068524;28;20058;-77
2024/01/27 02:19:43;;;;;;;10.68;3.25;;;;;;;4.34;49.29;95339.03;5069583;28;20536;-76
2024/01/27 02:22:08;;;;;;;10.40;2.92;;;;;;;4.36;49.11;95342.94;5049544;28;20032;-74
2024/01/27 02:24:34;;;;;;;8.52;3.63;;;;;;;4.37;48.66;95339.06;5067961;28;20100;-76
2024/01/27 02:26:59;;;;;;;7.47;3.70;;;;;;;4.35;48.56;95335.16;5049387;28;20032;-76
2024/01/27 02:29:27;;;;;;;11.13;4.50;;;;;;;4.32;48.33;95328.53;5069382;28;20796;-75
2024/01/27 02:31:54;;;;;;;5.45;2.85;;;;;;;4.39;47.58;95323.09;5068311;28;20487;-78
2024/01/27 02:34:19;;;;;;;9.35;3.10;;;;;;;4.47;47.41;95319.25;5068426;28;20064;-75
2024/01/27 02:36:44;;;;;;;7.03;2.90;;;;;;;4.47;47.06;95332.84;5069122;28;20075;-76
2024/01/27 02:39:10;;;;;;;5.97;2.47;;;;;;;4.51;46.98;95336.34;5065908;28;20086;-77
2024/01/27 02:41:38;;;;;;;5.93;2.40;;;;;;;4.59;46.50;95336.34;5067539;28;20086;-76
2024/01/27 02:44:05;;;;;;;7.38;2.55;;;;;;;4.61;46.23;95334.03;5066125;28;20337;-76
2024/01/27 02:46:30;;;;;;;5.20;2.42;;;;;;;4.57;46.39;95331.28;5068676;28;20451;-76
2024/01/27 02:48:55;;;;;;;8.30;2.63;;;;;;;4.61;45.99;95332.06;5067554;28;20137;-77
2024/01/27 02:51:21;;;;;;;5.95;2.63;;;;;;;4.63;45.75;95337.13;5068465;28;20032;-77
2024/01/27 02:53:46;;;;;;;6.28;2.63;;;;;;;4.68;45.95;95329.34;5068539;28;20082;-76
2024/01/27 02:56:11;;;;;;;7.90;2.63;;;;;;;4.69;45.72;95335.56;5065897;28;20490;-76
2024/01/27 02:58:37;;;;;;;7.30;2.22;;;;;;;4.57;45.80;95339.44;5067342;28;20099;-76
2024/01/27 03:01:02;;;;;;;7.47;2.63;;;;;;;4.64;45.80;95347.63;5066882;28;20033;-76
2024/01/27 03:03:29;;;;;;;4.35;2.25;;;;;;;4.55;46.10;95343.75;5067471;28;20057;-77
2024/01/27 03:05:54;;;;;;;5.15;2.30;;;;;;;4.68;45.82;95356.59;5065737;28;20044;-77
2024/01/27 03:08:20;;;;;;;5.47;2.45;;;;;;;4.68;46.14;95355.81;5066931;28;20101;-76
2024/01/27 03:10:45;;;;;;;5.45;2.25;;;;;;;4.72;45.94;95341.03;5067886;28;20506;-76
2024/01/27 03:13:11;;;;;;;5.68;2.38;;;;;;;4.73;46.08;95345.31;5066100;28;20024;-76
2024/01/27 03:15:37;;;;;;;4.85;2.20;;;;;;;4.73;46.48;95347.25;5068362;28;20478;-76
2024/01/27 03:18:03;;;;;;;3.72;1.92;;;;;;;4.62;46.93;95333.63;5065212;28;20016;-76
2024/01/27 03:20:30;;;;;;;5.38;2.47;;;;;;;4.76;47.51;95346.47;5066936;28;20017;-76
2024/01/27 03:22:56;;;;;;;4.80;2.28;;;;;;;4.76;48.45;95355.44;5066467;28;20028;-76
2024/01/27 03:25:22;;;;;;;4.60;2.10;;;;;;;4.70;49.07;95340.66;5068158;28;20111;-75
2024/01/27 03:27:47;;;;;;;6.80;2.42;;;;;;;4.64;49.53;95338.69;5066804;28;20032;-76
2024/01/27 03:30:12;;;;;;;6.93;2.83;;;;;;;4.68;50.07;95342.19;5066100;28;20111;-75
2024/01/27 03:32:38;;;;;;;6.18;3.08;;;;;;;4.66;50.32;95345.31;5067755;28;20035;-76
2024/01/27 03:35:04;;;;;;;6.85;2.42;;;;;;;4.61;51.29;95339.47;5065033;28;20020;-75
2024/01/27 03:37:29;;;;;;;6.97;2.85;;;;;;;4.58;51.06;95338.28;5066241;28;20029;-76
2024/01/27 03:39:55;;;;;;;5.13;2.65;;;;;;;4.57;51.23;95334.00;5064866;28;20517;-76
2024/01/27 03:42:21;;;;;;;4.78;2.33;;;;;;;4.62;52.21;95330.13;5066250;28;20495;-76
2024/01/27 03:44:46;;;;;;;4.80;2.08;;;;;;;4.59;52.25;95328.16;5066206;28;20074;-77
2024/01/27 03:47:11;;;;;;;4.32;1.90;;;;;;;4.61;52.60;95331.28;5048402;28;20028;-75
2024/01/27 03:49:37;;;;;;;5.82;2.28;;;;;;;4.59;53.21;95328.16;5048907;28;20454;-74
2024/01/27 03:52:03;;;;;;;6.05;2.00;;;;;;;4.63;53.86;95318.06;5066609;28;20474;-75
2024/01/27 03:54:29;;;;;;;4.07;2.08;;;;;;;4.61;53.87;95323.91;5067843;28;20070;-75
2024/01/27 03:56:54;;;;;;;4.95;2.10;;;;;;;4.62;54.38;95335.56;5064781;28;20028;-75
2024/01/27 03:59:20;;;;;;;6.80;2.70;;;;;;;4.66;54.17;95331.69;5067275;28;20040;-76
2024/01/27 04:01:45;;;;;;;4.13;1.83;;;;;;;4.69;54.81;95332.84;5066194;28;20036;-77
2024/01/27 04:04:10;;;;;;;4.70;2.28;;;;;;;4.73;54.87;95341.81;5067164;28;20488;-76
2024/01/27 04:06:40;;;;;;;7.00;2.50;;;;;;;4.71;55.24;95327.81;5048053;28;20036;-75
2024/01/27 04:09:08;;;;;;;5.22;2.10;;;;;;;4.77;54.94;95334.41;5069656;28;20052;-76
2024/01/27 04:11:34;;;;;;;5.82;1.80;;;;;;;4.79;54.93;95343.75;5049819;28;20473;-76
2024/01/27 04:13:59;;;;;;;6.93;2.10;;;;;;;4.69;55.28;95330.13;5064387;28;20384;-76
2024/01/27 04:16:25;;;;;;;4.82;2.20;;;;;;;4.73;55.12;95328.19;5065923;28;20043;-76
2024/01/27 04:18:50;;;;;;;5.22;2.15;;;;;;;4.70;55.21;95316.13;5047753;28;20108;-76
2024/01/27 04:21:16;;;;;;;7.07;2.13;;;;;;;4.72;55.25;95318.47;5067024;28;20037;-75
2024/01/27 04:23:41;;;;;;;4.60;1.85;;;;;;;4.68;55.28;95331.28;5047762;28;20043;-76
2024/01/27 04:26:07;;;;;;;3.92;2.17;;;;;;;4.63;55.23;95329.72;5066966;28;20035;-77
2024/01/27 04:28:32;;;;;;;3.28;1.90;;;;;;;4.63;55.63;95320.78;5065393;28;20114;-76
2024/01/27 04:30:57;;;;;;;6.95;2.10;;;;;;;4.64;55.49;95330.50;5064968;28;20037;-76
2024/01/27 04:33:23;;;;;;;5.13;1.98;;;;;;;4.60;55.73;95332.47;5065617;28;20020;-77
2024/01/27 04:35:48;;;;;;;6.95;2.38;;;;;;;4.60;55.74;95325.06;5064285;28;20470;-75
2024/01/27 04:38:13;;;;;;;4.57;2.35;;;;;;;4.66;55.59;95331.69;5065343;28;20029;-77
2024/01/27 04:40:39;;;;;;;4.05;2.08;;;;;;;4.71;55.80;95325.09;5064164;28;20546;-77
2024/01/27 04:43:04;;;;;;;7.85;2.83;;;;;;;4.66;55.91;95326.25;5048785;28;20048;-76
2024/01/27 04:45:30;;;;;;;6.85;2.85;;;;;;;4.64;56.44;95325.84;5064937;28;20473;-77
2024/01/27 04:47:55;;;;;;;7.35;2.53;;;;;;;4.58;56.83;95323.88;5064962;28;20480;-76
2024/01/27 04:50:20;;;;;;;5.53;2.38;;;;;;;4.67;56.82;95337.91;5065364;28;20033;-76
2024/01/27 04:52:46;;;;;;;6.82;2.50;;;;;;;4.68;56.74;95336.75;5064303;28;20028;-76
2024/01/27 04:55:12;;;;;;;8.07;2.83;;;;;;;4.73;57.00;95337.13;5066744;28;20032;-76
2024/01/27 04:57:38;;;;;;;4.55;2.50;;;;;;;4.76;57.13;95336.38;5065328;28;20035;-76
2024/01/27 05:00:07;;;;;;;4.78;2.00;;;;;;;4.75;57.24;95326.63;5051968;28;20028;-77
2024/01/27 05:02:32;;;;;;;5.55;2.28;;;;;;;4.83;57.27;95346.47;5069652;28;20029;-76
2024/01/27 05:04:58;;;;;;;6.97;1.88;;;;;;;4.86;57.46;95342.19;5070704;28;20129;-75
2024/01/27 05:07:23;;;;;;;3.75;2.22;;;;;;;4.83;57.68;95345.69;5068645;28;20403;-75
2024/01/27 05:09:48;;;;;;;3.78;2.20;;;;;;;4.75;58.08;95336.72;5051734;28;20032;-76
2024/01/27 05:12:14;;;;;;;5.40;2.60;;;;;;;4.73;58.41;95353.47;5069293;28;20103;-77
2024/01/27 05:14:44;;;;;;;7.15;2.50;;;;;;;4.73;58.50;95347.25;5069363;28;20095;-76
2024/01/27 05:17:09;;;;;;;7.18;2.40;;;;;;;4.80;58.67;95352.69;5069255;28;20032;-76
2024/01/27 05:19:34;;;;;;;4.93;2.47;;;;;;;4.77;58.93;95345.31;5069152;28;20025;-76
2024/01/27 05:22:00;;;;;;;5.20;2.28;;;;;;;4.82;59.25;95355.81;5069243;28;20024;-76
2024/01/27 05:24:25;;;;;;;8.68;2.92;;;;;;;4.78;59.71;95344.16;5069242;28;20517;-76
2024/01/27 05:26:51;;;;;;;5.72;2.25;;;;;;;4.81;59.72;95351.53;5069746;28;20118;-76
2024/01/27 05:29:16;;;;;;;7.03;2.90;;;;;;;4.78;60.04;95346.88;5070060;28;20066;-76
2024/01/27 05:31:43;;;;;;;4.53;2.60;;;;;;;4.85;59.66;95346.09;5068955;28;20035;-76
2024/01/27 05:34:10;;;;;;;5.10;2.83;;;;;;;4.79;60.20;95353.88;5068701;28;20721;-77
2024/01/27 05:36:36;;;;;;;6.78;3.20;;;;;;;4.81;60.37;95351.53;5068653;28;20142;-76
2024/01/27 05:39:03;;;;;;;6.63;2.80;;;;;;;4.89;60.45;95355.81;5052001;28;20523;-76
2024/01/27 05:41:28;;;;;;;7.80;3.03;;;;;;;4.90;60.60;95346.47;5067645;28;20037;-75
2024/01/27 05:43:54;;;;;;;7.35;3.63;;;;;;;4.80;60.65;95349.97;5068298;28;20398;-77
2024/01/27 05:46:19;;;;;;;5.30;2.50;;;;;;;4.83;60.76;95362.03;5068118;28;20032;-77
2024/01/27 05:48:45;;;;;;;4.53;2.40;;;;;;;4.79;61.00;95357.38;5067155;28;20053;-77
2024/01/27 05:51:12;;;;;;;4.45;2.45;;;;;;;4.73;61.08;95363.59;5068633;28;20433;-77
2024/01/27 05:53:37;;;;;;;4.32;2.40;;;;;;;4.67;61.28;95370.59;5067234;28;20020;-77
2024/01/27 05:56:03;;;;;;;6.10;2.42;;;;;;;4.65;61.43;95375.66;5051759;28;20052;-77
2024/01/27 05:58:28;;;;;;;7.00;3.65;;;;;;;4.64;61.61;95377.56;5068476;28;20126;-77
2024/01/27 06:00:53;;;;;;;5.13;2.83;;;;;;;4.68;61.40;95383.81;5070148;28;20056;-77
2024/01/27 06:03:19;;;;;;;4.93;2.97;;;;;;;4.61;61.74;95378.38;5067611;28;20029;-77
2024/01/27 06:05:44;;;;;;;8.43;2.92;;;;;;;4.57;61.77;95388.47;5067760;28;20514;-77
2024/01/27 06:08:10;;;;;;;7.90;3.22;;;;;;;4.58;61.64;95390.03;5051311;28;20025;-77
2024/01/27 06:10:38;;;;;;;6.00;3.22;;;;;;;4.46;61.79;95387.66;5067727;28;20427;-77
2024/01/27 06:13:04;;;;;;;11.00;3.30;;;;;;;4.42;61.96;95381.47;5067834;28;20059;-77
2024/01/27 06:15:29;;;;;;;6.28;3.13;;;;;;;4.41;62.08;95385.31;5066415;28;20133;-76
2024/01/27 06:17:55;;;;;;;11.55;3.55;;;;;;;4.39;62.29;95388.44;5051254;28;20486;-76
2024/01/27 06:20:20;;;;;;;6.55;3.17;;;;;;;4.33;62.49;95389.97;5049845;28;20025;-77
2024/01/27 06:22:46;;;;;;;7.57;3.40;;;;;;;4.37;62.35;95379.88;5067779;28;20178;-77
2024/01/27 06:25:11;;;;;;;7.45;3.58;;;;;;;4.34;62.46;95396.97;5067384;28;20036;-77
2024/01/27 06:27:41;;;;;;;5.82;2.78;;;;;;;4.34;62.67;95405.16;5068271;28;20028;-77
2024/01/27 06:30:07;;;;;;;6.05;3.25;;;;;;;4.30;62.86;95415.25;5067831;28;20032;-77
2024/01/27 06:32:33;;;;;;;5.80;3.00;;;;;;;4.27;63.07;95416.03;5049508;28;20048;-76
2024/01/27 06:34:58;;;;;;;6.93;3.13;;;;;;;4.22;63.43;95424.56;5050967;28;20039;-77
2024/01/27 06:37:25;;;;;;;5.53;3.25;;;;;;;4.35;63.17;95431.19;5065935;28;20036;-75
2024/01/27 06:39:50;;;;;;;8.18;2.63;;;;;;;4.39;63.47;95432.00;5067562;28;20051;-77
2024/01/27 06:42:16;;;;;;;3.97;2.42;;;;;;;4.44;63.07;95433.56;5067799;28;20021;-77
2024/01/27 06:44:41;;;;;;;4.32;2.47;;;;;;;4.45;63.18;95443.28;5068163;28;20028;-80
2024/01/27 06:47:06;;;;;;;8.07;3.40;;;;;;;4.42;63.45;95453.03;5068285;28;20037;-76
2024/01/27 06:49:33;;;;;;;7.35;3.25;;;;;;;4.49;63.21;95452.25;5067679;28;20159;-76
2024/01/27 06:51:58;;;;;;;6.88;3.20;;;;;;;4.48;63.12;95454.19;5068837;28;20031;-77
2024/01/27 06:54:24;;;;;;;7.68;3.75;;;;;;;4.60;62.67;95442.16;5067362;28;20032;-77
2024/01/27 06:56:49;;;;;;;4.22;2.63;;;;;;;4.60;62.44;95444.91;5067383;28;20024;-76
2024/01/27 06:59:14;;;;;;;6.00;2.30;;;;;;;4.67;62.29;95435.97;5067196;28;20488;-77
2024/01/27 07:01:48;;;;;;;4.38;2.10;;;;;;;4.66;62.06;95424.28;5066737;28;20032;-76
2024/01/27 07:04:13;;;;;;;3.60;1.83;;;;;;;4.75;61.67;95426.63;5066926;28;20036;-77
2024/01/27 07:06:39;;;;;;;4.78;1.67;;;;;;;4.78;61.62;95421.19;5065819;28;20045;-77
2024/01/27 07:09:04;;;;;;;4.63;1.52;;;;;;;4.87;61.34;95414.56;5068530;28;20116;-77
2024/01/27 07:11:29;;;;;;;2.78;1.38;;;;;;;4.90;60.99;95430.16;5066873;28;20033;-77
2024/01/27 07:13:55;;;;;;;3.20;1.55;;;;;;;4.83;60.91;95432.88;5066990;28;20107;-77
2024/01/27 07:16:21;;;;;;;3.13;1.50;;;;;;;4.85;61.01;95444.16;5066620;28;20128;-78
2024/01/27 07:18:46;;;;;;;3.08;1.15;;;;;;;4.90;60.80;95444.53;5068078;28;20108;-78
2024/01/27 07:21:16;;;;;;;5.65;1.55;;;;;;;4.93;60.54;95441.06;5065294;28;20519;-77
2024/01/27 07:23:41;;;;;;;3.63;1.77;;;;;;;4.90;60.72;95450.00;5067374;28;20074;-77
2024/01/27 07:26:08;;;;;;;4.32;2.30;;;;;;;4.79;60.75;95449.19;5068155;28;20108;-77
2024/01/27 07:28:34;;;;;;;2.40;1.55;;;;;;;4.75;61.12;95468.25;5065012;28;20186;-77
2024/01/27 07:30:59;;;;;;;4.50;2.63;;;;;;;4.72;61.15;95471.00;5068039;28;20107;-76
2024/01/27 07:33:25;;;;;;;3.72;2.08;;;;;;;4.80;60.81;95478.78;5048263;28;20454;-77
2024/01/27 07:35:50;;;;;;;4.00;2.13;;;;;;;4.85;60.49;95493.97;5067892;28;20020;-77
2024/01/27 07:38:16;;;;;;;2.55;1.83;;;;;;;4.86;60.13;95511.88;5065537;28;20037;-77
2024/01/27 07:40:41;;;;;;;3.08;1.95;;;;;;;4.95;59.48;95514.22;5067394;28;20112;-77
2024/01/27 07:43:06;;;;;;;3.92;2.20;;;;;;;4.90;59.49;95520.84;5066717;28;20033;-77
2024/01/27 07:45:32;;;;;;;3.40;1.45;;;;;;;4.92;58.81;95509.53;5048009;28;20115;-76
2024/01/27 07:47:58;;;;;;;2.70;1.40;;;;;;;4.92;58.13;95523.94;5066138;28;20074;-77
2024/01/27 07:50:23;;;;;;;2.45;1.58;;;;;;;4.93;58.08;95517.34;5066153;28;20036;-78
2024/01/27 07:52:49;;;;;;;4.38;1.73;;;;;;;4.95;58.04;95517.72;5049717;28;20029;-77
2024/01/27 07:55:14;;;;;;;4.07;1.85;;;;;;;4.87;58.38;95520.81;5066206;28;20094;-77
2024/01/27 07:57:40;;;;;;;2.85;1.35;;;;;;;4.79;58.40;95531.69;5049193;28;20066;-76
2024/01/27 08:00:06;;;;;;;2.38;1.73;;;;;;;4.80;58.29;95551.53;5067257;28;20363;-77
2024/01/27 08:02:32;;;;;;;4.85;2.03;;;;;;;4.79;57.97;95539.88;5066328;28;20028;-77
2024/01/27 08:04:58;;;;;;;6.93;2.15;;;;;;;4.80;57.96;95544.16;5067619;28;20166;-78
2024/01/27 08:07:23;;;;;;;5.28;3.13;;;;;;;4.81;58.23;95550.38;5064274;28;20115;-77
2024/01/27 08:09:48;;;;;;;6.43;2.05;;;;;;;4.81;58.07;95547.66;5066116;28;20039;-77
2024/01/27 08:12:14;;;;;;;3.83;2.70;;;;;;;4.82;58.38;95573.75;5064429;28;20059;-78
2024/01/27 08:14:39;;;;;;;4.70;2.38;;;;;;;4.91;58.01;95563.25;5067355;28;20069;-77
2024/01/27 08:17:05;;;;;;;4.68;2.60;;;;;;;4.96;57.93;95541.09;5066518;28;20029;-78
2024/01/27 08:19:31;;;;;;;5.93;3.55;;;;;;;4.98;58.02;95529.78;5065063;28;20028;-77
2024/01/27 08:21:56;;;;;;;4.32;2.38;;;;;;;5.08;57.64;95556.28;5065903;28;20102;-76
2024/01/27 08:24:23;;;;;;;4.10;2.83;;;;;;;5.07;57.52;95541.91;5064359;28;20024;-77
2024/01/27 08:26:49;;;;;;;3.45;2.20;;;;;;;5.07;57.34;95546.56;5065879;28;20082;-76
2024/01/27 08:29:15;;;;;;;3.28;2.33;;;;;;;5.09;57.24;95538.00;5047337;28;20041;-75
2024/01/27 08:31:40;;;;;;;4.05;2.53;;;;;;;5.14;56.59;95524.75;5049120;28;20032;-74
2024/01/27 08:34:06;;;;;;;5.65;2.88;;;;;;;5.15;56.70;95520.09;5064223;28;20401;-75
2024/01/27 08:36:33;;;;;;;5.25;2.72;;;;;;;5.28;56.02;95559.47;5064943;28;20031;-77
2024/01/27 08:38:59;;;;;;;5.60;2.78;;;;;;;5.32;55.88;95566.47;5047627;28;20039;-76
2024/01/27 08:41:24;;;;;;;3.88;2.38;;;;;;;5.12;56.40;95523.59;5062092;28;20062;-76
2024/01/27 08:43:50;;;;;;;5.00;3.55;;;;;;;5.31;56.04;95524.00;5066445;28;20029;-75
2024/01/27 08:46:17;;;;;;;6.25;2.78;;;;;;;5.41;55.43;95546.22;5063548;28;20067;-75
2024/01/27 08:48:43;;;;;;;3.85;2.33;;;;;;;5.42;55.12;95543.09;5065459;28;20052;-74
2024/01/27 08:51:09;;;;;;;4.88;2.65;;;;;;;5.48;55.39;95551.69;5064292;28;20043;-77
2024/01/27 08:53:35;;;;;;;3.38;2.00;;;;;;;5.41;55.01;95538.06;5048651;28;20124;-76
2024/01/27 08:56:01;;;;;;;3.00;2.30;;;;;;;5.32;54.97;95522.84;5065351;28;20467;-76
2024/01/27 08:58:26;;;;;;;5.78;2.85;;;;;;;5.51;54.77;95542.75;5064764;28;20044;-76
2024/01/27 09:00:52;;;;;;;4.20;2.53;;;;;;;5.51;54.96;95550.91;5065790;28;20519;-77
2024/01/27 09:03:20;;;;;;;5.63;3.10;;;;;;;5.69;54.83;95550.91;5064155;28;20534;-77
2024/01/27 09:05:46;;;;;;;3.63;2.60;;;;;;;5.72;54.36;95545.44;5065672;28;20121;-76
2024/01/27 09:08:11;;;;;;;3.83;2.70;;;;;;;5.73;54.25;95557.13;5047286;28;20494;-77
2024/01/27 09:10:37;;;;;;;3.20;2.35;;;;;;;5.76;54.26;95550.91;5048736;28;20040;-77
2024/01/27 09:13:02;;;;;;;3.30;2.30;;;;;;;5.76;54.25;95550.91;5047652;28;20056;-79
2024/01/27 09:15:28;;;;;;;2.80;2.10;;;;;;;5.66;54.36;95543.50;5064928;28;20090;-74
2024/01/27 09:17:53;;;;;;;2.35;1.77;;;;;;;5.69;54.24;95553.66;5048447;28;20035;-77
2024/01/27 09:20:19;;;;;;;3.05;2.10;;;;;;;5.53;54.72;95543.13;5063867;28;20077;-75
2024/01/27 09:22:47;;;;;;;5.30;2.92;;;;;;;5.51;55.19;95545.47;5065246;28;20036;-75
2024/01/27 09:25:13;;;;;;;4.38;2.20;;;;;;;5.50;55.21;95539.19;5047199;28;20478;-74
2024/01/27 09:27:39;;;;;;;3.58;2.25;;;;;;;5.53;55.38;95543.13;5065175;28;20040;-76
2024/01/27 09:30:05;;;;;;;4.35;2.40;;;;;;;5.64;55.27;95537.66;5064376;28;20465;-78
2024/01/27 09:32:30;;;;;;;3.03;2.08;;;;;;;5.63;54.58;95519.75;5063138;28;20149;-77
2024/01/27 09:34:56;;;;;;;4.22;2.70;;;;;;;5.71;54.60;95515.84;5047850;28;20509;-75
2024/01/27 09:37:21;;;;;;;3.08;2.10;;;;;;;5.62;54.52;95501.78;5065278;28;20020;-74
2024/01/27 09:39:47;;;;;;;3.67;2.33;;;;;;;5.68;54.49;95524.78;5066579;28;20532;-75
2024/01/27 09:42:14;;;;;;;3.15;2.28;;;;;;;5.67;54.60;95523.22;5047217;28;20366;-76
2024/01/27 09:44:40;;;;;;;3.72;2.08;;;;;;;5.71;54.45;95524.78;5065927;28;20325;-79
2024/01/27 09:47:05;;;;;;;3.28;2.35;;;;;;;5.68;54.58;95530.25;5066756;28;20032;-77
2024/01/27 09:49:31;;;;;;;5.28;2.97;;;;;;;5.64;54.50;95522.06;5068497;28;20021;-75
2024/01/27 09:51:57;;;;;;;3.38;2.00;;;;;;;5.66;54.20;95529.88;5067751;28;20035;-85
2024/01/27 09:54:22;;;;;;;2.72;2.08;;;;;;;5.62;53.78;95521.69;5069534;28;20039;-85
2024/01/27 09:56:48;;;;;;;2.40;1.90;;;;;;;5.48;54.22;95541.56;5051668;28;20025;-78
2024/01/27 09:59:17;;;;;;;3.10;2.00;;;;;;;5.52;54.22;95544.28;5067182;28;20086;-78
2024/01/27 10:01:44;;;;;;;4.40;2.00;;;;;;;5.45;54.58;95547.78;5068686;28;20599;-75
2024/01/27 10:04:09;;;;;;;3.40;2.30;;;;;;;5.52;54.50;95549.75;5066711;28;20028;-78
2024/01/27 10:06:34;;;;;;;3.40;2.53;;;;;;;5.46;54.69;95543.91;5068178;28;20029;-77
2024/01/27 10:09:00;;;;;;;3.17;1.80;;;;;;;5.43;54.49;95536.47;5066725;28;20064;-77
2024/01/27 10:11:26;;;;;;;4.25;3.30;;;;;;;5.44;54.76;95542.72;5069378;28;20028;-76
2024/01/27 10:13:56;;;;;;;3.03;2.38;;;;;;;5.42;54.78;95558.69;5051169;28;20031;-75
2024/01/27 10:16:21;;;;;;;3.85;2.45;;;;;;;5.40;54.99;95558.31;5050070;28;20060;-76
2024/01/27 10:18:47;;;;;;;2.95;2.00;;;;;;;5.30;55.09;95546.22;5068588;28;20510;-78
2024/01/27 10:21:16;;;;;;;2.88;2.13;;;;;;;5.20;55.52;95553.19;5050052;28;20490;-76
2024/01/27 10:23:41;;;;;;;3.03;2.00;;;;;;;5.21;55.21;95565.66;5067933;28;20051;-79
2024/01/27 10:26:10;;;;;;;3.17;2.08;;;;;;;5.17;55.54;95570.34;5067588;28;20028;-77
2024/01/27 10:28:36;;;;;;;3.38;1.85;;;;;;;5.19;55.38;95576.19;5068511;28;20410;-78
2024/01/27 10:31:10;;;;;;;2.35;1.70;;;;;;;5.06;55.60;95585.88;5050538;28;20108;-78
2024/01/27 10:33:35;;;;;;;4.20;2.17;;;;;;;5.06;55.92;95575.78;5049926;28;20056;-78
2024/01/27 10:36:01;;;;;;;4.15;2.15;;;;;;;5.04;55.79;95560.94;5068272;28;20133;-78
2024/01/27 10:38:38;;;;;;;3.55;2.20;;;;;;;5.02;55.92;95571.47;5049170;28;20166;-76
2024/01/27 10:41:10;;;;;;;2.55;2.05;;;;;;;4.95;56.56;95571.44;5068269;28;20055;-77
2024/01/27 10:43:36;;;;;;;3.80;2.58;;;;;;;5.04;56.27;95575.34;5066239;28;20033;-78
2024/01/27 10:46:05;;;;;;;3.92;2.28;;;;;;;5.03;56.27;95567.56;5067599;28;20503;-76
2024/01/27 10:48:30;;;;;;;3.47;2.13;;;;;;;4.94;56.08;95532.53;5049860;28;20060;-75
2024/01/27 10:50:57;;;;;;;3.78;2.17;;;;;;;4.94;56.12;95554.31;5067846;28;20096;-75
2024/01/27 10:53:31;;;;;;;2.83;1.92;;;;;;;4.98;56.08;95576.91;5067340;28;20064;-74
2024/01/27 10:55:58;;;;;;;2.90;2.13;;;;;;;5.01;56.48;95567.97;5066090;28;20529;-73
2024/01/27 10:58:24;;;;;;;3.50;2.25;;;;;;;4.97;56.31;95577.28;5067081;28;20559;-74
2024/01/27 11:00:50;;;;;;;4.90;2.50;;;;;;;4.96;56.85;95567.56;5066160;28;20078;-73
2024/01/27 11:03:18;;;;;;;3.10;2.30;;;;;;;4.90;56.79;95578.06;5067111;28;20107;-73
2024/01/27 11:05:46;;;;;;;2.60;1.80;;;;;;;4.78;56.46;95583.84;5066601;28;20190;-74
2024/01/27 11:08:13;;;;;;;2.70;2.20;;;;;;;4.74;57.53;95583.81;5066022;28;20020;-73
2024/01/27 11:10:38;;;;;;;5.68;2.42;;;;;;;4.74;57.62;95596.66;5050467;28;20183;-73
2024/01/27 11:13:04;;;;;;;3.40;2.35;;;;;;;4.77;57.76;95593.19;5065706;28;20094;-74
2024/01/27 11:15:30;;;;;;;3.28;2.20;;;;;;;4.79;57.78;95586.19;5066840;28;20361;-74
2024/01/27 11:18:04;;;;;;;2.67;1.90;;;;;;;4.78;57.70;95570.22;5065516;28;20421;-73
2024/01/27 11:20:35;;;;;;;4.00;2.40;;;;;;;4.81;57.72;95569.44;5066775;28;20024;-74
2024/01/27 11:23:14;;;;;;;3.83;2.92;;;;;;;4.70;57.97;95566.72;5066495;28;20032;-75
2024/01/27 11:25:39;;;;;;;3.53;2.13;;;;;;;4.76;57.95;95586.97;5065405;28;20044;-74
2024/01/27 11:28:13;;;;;;;2.90;2.42;;;;;;;4.70;58.29;95576.78;5066625;28;20108;-75
2024/01/27 11:30:39;;;;;;;5.60;2.58;;;;;;;4.66;58.02;95571.34;5048329;28;20048;-74
2024/01/27 11:33:08;;;;;;;2.70;2.22;;;;;;;4.67;58.14;95596.63;5066842;28;20075;-74
2024/01/27 11:35:33;;;;;;;2.75;2.28;;;;;;;4.64;57.98;95590.00;5066866;28;20057;-73